createdAt,value
2022-11-09T00:00:43.824Z,10.89
2022-11-09T00:01:44.750Z,10.92
2022-11-09T00:02:49.951Z,10.94
2022-11-09T00:03:46.297Z,10.94
2022-11-09T00:04:46.930Z,10.89
2022-11-09T00:05:47.846Z,10.95
2022-11-09T00:06:48.961Z,10.89
2022-11-09T00:07:49.332Z,10.95
2022-11-09T00:08:49.541Z,10.94
2022-11-09T00:09:50.201Z,11.01
2022-11-09T00:10:51.355Z,10.95
2022-11-09T00:11:52.324Z,10.84
2022-11-09T00:12:52.298Z,11.02
2022-11-09T00:13:53.229Z,10.94
2022-11-09T00:14:53.730Z,10.87
2022-11-09T00:15:53.643Z,10.95
2022-11-09T00:16:54.876Z,10.97
2022-11-09T00:17:54.499Z,10.87
2022-11-09T00:18:55.704Z,10.92
2022-11-09T00:19:56.326Z,10.83
2022-11-09T00:20:57.571Z,10.9
2022-11-09T00:21:57.488Z,10.86
2022-11-09T00:22:58.740Z,10.86
2022-11-09T00:23:58.673Z,10.89
2022-11-09T00:24:59.018Z,10.89
2022-11-09T00:25:59.655Z,10.84
2022-11-09T00:26:59.853Z,10.84
2022-11-09T00:28:00.397Z,10.89
2022-11-09T00:29:00.898Z,10.87
2022-11-09T00:30:00.894Z,10.77
2022-11-09T00:31:00.764Z,10.8
2022-11-09T00:32:01.989Z,10.8
2022-11-09T00:33:01.932Z,10.75
2022-11-09T00:34:02.861Z,10.72
2022-11-09T00:35:03.494Z,10.75
2022-11-09T00:36:03.996Z,10.75
2022-11-09T00:37:04.221Z,10.59
2022-11-09T00:38:05.088Z,10.69
2022-11-09T00:39:05.448Z,10.67
2022-11-09T00:40:05.792Z,10.68
2022-11-09T00:41:06.557Z,10.67
2022-11-09T00:42:06.606Z,10.62
2022-11-09T00:43:07.981Z,10.62
2022-11-09T00:44:08.743Z,10.64
2022-11-09T00:45:08.581Z,10.75
2022-11-09T00:46:09.510Z,10.59
2022-11-09T00:47:09.402Z,10.65
2022-11-09T00:48:10.033Z,10.71
2022-11-09T00:49:10.674Z,10.68
2022-11-09T00:50:11.902Z,10.68
2022-11-09T00:51:12.652Z,10.68
2022-11-09T00:52:12.856Z,10.65
2022-11-09T00:53:13.812Z,10.71
2022-11-09T00:54:13.986Z,10.65
2022-11-09T00:55:14.915Z,10.65
2022-11-09T00:56:15.564Z,10.71
2022-11-09T00:57:15.911Z,10.64
2022-11-09T00:58:16.857Z,10.65
2022-11-09T00:59:17.511Z,10.68
2022-11-09T01:00:17.855Z,10.68
2022-11-09T01:01:19.420Z,10.65
2022-11-09T01:02:19.931Z,10.58
2022-11-09T01:03:21.842Z,10.64
2022-11-09T01:04:21.900Z,10.64
2022-11-09T01:05:22.240Z,10.65
2022-11-09T01:06:23.175Z,10.68
2022-11-09T01:07:23.777Z,10.68
2022-11-09T01:08:24.008Z,10.62
2022-11-09T01:09:24.639Z,10.61
2022-11-09T01:10:24.582Z,10.67
2022-11-09T01:11:25.627Z,10.69
2022-11-09T01:12:25.275Z,10.75
2022-11-09T01:13:26.807Z,10.61
2022-11-09T01:14:26.453Z,10.65
2022-11-09T01:15:27.381Z,10.59
2022-11-09T01:16:27.716Z,10.67
2022-11-09T01:17:28.350Z,10.58
2022-11-09T01:18:29.852Z,10.65
2022-11-09T01:19:30.778Z,10.58
2022-11-09T01:20:31.291Z,10.62
2022-11-09T01:21:31.744Z,10.67
2022-11-09T01:22:32.645Z,10.61
2022-11-09T01:23:32.879Z,10.67
2022-11-09T01:24:33.106Z,10.59
2022-11-09T01:25:33.731Z,10.62
2022-11-09T01:26:34.943Z,10.64
2022-11-09T01:27:35.290Z,10.64
2022-11-09T01:28:36.239Z,10.72
2022-11-09T01:29:36.477Z,10.71
2022-11-09T01:30:36.803Z,10.61
2022-11-09T01:31:38.083Z,10.57
2022-11-09T01:32:39.042Z,10.75
2022-11-09T01:33:39.035Z,10.67
2022-11-09T01:34:40.329Z,10.76
2022-11-09T01:35:40.253Z,10.65
2022-11-09T01:36:41.449Z,10.65
2022-11-09T01:37:42.341Z,10.58
2022-11-09T01:38:42.582Z,10.67
2022-11-09T01:39:43.485Z,10.59
2022-11-09T01:40:44.412Z,10.53
2022-11-09T01:41:45.173Z,10.62
2022-11-09T01:42:45.098Z,10.51
2022-11-09T01:43:46.452Z,10.55
2022-11-09T01:44:46.662Z,10.53
2022-11-09T01:45:47.589Z,10.46
2022-11-09T01:46:48.087Z,10.57
2022-11-09T01:47:48.316Z,10.57
2022-11-09T01:48:49.516Z,10.48
2022-11-09T01:49:50.447Z,10.45
2022-11-09T01:50:50.088Z,10.53
2022-11-09T01:51:51.077Z,10.43
2022-11-09T01:52:51.731Z,10.49
2022-11-09T01:53:52.693Z,10.53
2022-11-09T01:54:53.893Z,10.53
2022-11-09T01:55:54.515Z,10.53
2022-11-09T01:56:55.739Z,10.55
2022-11-09T01:57:55.955Z,10.49
2022-11-09T01:58:56.628Z,10.51
2022-11-09T01:59:57.577Z,10.61
2022-11-09T02:00:58.329Z,10.43
2022-11-09T02:01:58.738Z,10.49
2022-11-09T02:02:58.661Z,10.41
2022-11-09T02:03:59.267Z,10.38
2022-11-09T02:04:59.906Z,10.45
2022-11-09T02:06:01.099Z,10.36
2022-11-09T02:07:01.923Z,10.42
2022-11-09T02:08:02.343Z,10.43
2022-11-09T02:09:03.281Z,10.36
2022-11-09T02:10:04.222Z,10.39
2022-11-09T02:11:04.146Z,10.28
2022-11-09T02:12:04.883Z,10.25
2022-11-09T02:13:05.800Z,10.25
2022-11-09T02:14:06.433Z,10.2
2022-11-09T02:15:06.970Z,10.21
2022-11-09T02:16:07.626Z,10.27
2022-11-09T02:17:07.827Z,10.21
2022-11-09T02:18:08.045Z,10.27
2022-11-09T02:19:08.270Z,10.31
2022-11-09T02:20:09.172Z,10.24
2022-11-09T02:21:10.379Z,10.1
2022-11-09T02:22:10.812Z,10.23
2022-11-09T02:23:11.448Z,10.13
2022-11-09T02:24:12.328Z,10.18
2022-11-09T02:25:12.552Z,10.15
2022-11-09T02:26:13.472Z,10.25
2022-11-09T02:27:14.416Z,10.06
2022-11-09T02:28:14.648Z,10.17
2022-11-09T02:29:15.000Z,10.12
2022-11-09T02:30:15.541Z,10.09
2022-11-09T02:31:16.192Z,10.09
2022-11-09T02:32:16.356Z,10.13
2022-11-09T02:33:18.052Z,10.23
2022-11-09T02:34:18.434Z,10.17
2022-11-09T02:35:18.921Z,10.17
2022-11-09T02:36:18.849Z,10.17
2022-11-09T02:37:19.481Z,10.3
2022-11-09T02:38:19.981Z,10.25
2022-11-09T02:39:20.488Z,10.27
2022-11-09T02:40:21.436Z,10.17
2022-11-09T02:41:21.657Z,10.27
2022-11-09T02:42:27.447Z,10.13
2022-11-09T02:43:23.626Z,10.18
2022-11-09T02:44:23.339Z,10.23
2022-11-09T02:45:24.565Z,10.28
2022-11-09T02:46:24.767Z,10.3
2022-11-09T02:47:25.686Z,10.23
2022-11-09T02:48:25.656Z,10.25
2022-11-09T02:49:26.580Z,10.25
2022-11-09T02:50:26.798Z,10.27
2022-11-09T02:51:27.148Z,10.24
2022-11-09T02:52:28.483Z,10.27
2022-11-09T02:53:28.828Z,10.25
2022-11-09T02:54:30.348Z,10.27
2022-11-09T02:55:30.705Z,10.21
2022-11-09T02:56:30.928Z,10.27
2022-11-09T02:57:31.964Z,10.27
2022-11-09T02:58:31.918Z,10.31
2022-11-09T02:59:32.836Z,10.24
2022-11-09T03:00:33.342Z,10.27
2022-11-09T03:01:33.268Z,10.17
2022-11-09T03:02:33.185Z,10.25
2022-11-09T03:03:34.516Z,10.27
2022-11-09T03:04:35.015Z,10.23
2022-11-09T03:05:34.949Z,10.27
2022-11-09T03:06:35.878Z,10.27
2022-11-09T03:07:35.714Z,10.21
2022-11-09T03:08:36.920Z,10.15
2022-11-09T03:09:37.137Z,10.12
2022-11-09T03:10:37.787Z,10.15
2022-11-09T03:11:39.009Z,10.12
2022-11-09T03:12:39.798Z,10.15
2022-11-09T03:13:40.706Z,10.15
2022-11-09T03:14:41.137Z,10.13
2022-11-09T03:15:42.376Z,10.1
2022-11-09T03:16:50.626Z,10.17
2022-11-09T03:17:43.302Z,10.12
2022-11-09T03:18:43.216Z,10.12
2022-11-09T03:19:44.167Z,10.09
2022-11-09T03:20:44.388Z,10.17
2022-11-09T03:21:45.306Z,10.12
2022-11-09T03:22:46.028Z,10.09
2022-11-09T03:23:47.248Z,10.13
2022-11-09T03:24:47.481Z,10.18
2022-11-09T03:25:47.829Z,10.15
2022-11-09T03:26:48.748Z,10.12
2022-11-09T03:27:48.959Z,10.1
2022-11-09T03:28:48.880Z,10.15
2022-11-09T03:29:49.830Z,10.17
2022-11-09T03:30:50.060Z,10.1
2022-11-09T03:31:50.691Z,10.12
2022-11-09T03:32:55.810Z,10.2
2022-11-09T03:33:51.767Z,10.12
2022-11-09T03:34:53.133Z,10.18
2022-11-09T03:35:53.245Z,10.21
2022-11-09T03:36:54.796Z,10.12
2022-11-09T03:37:54.979Z,10.17
2022-11-09T03:38:54.515Z,10.18
2022-11-09T03:39:55.175Z,10.13
2022-11-09T03:40:56.097Z,10.13
2022-11-09T03:41:56.746Z,10.15
2022-11-09T03:42:57.584Z,10.23
2022-11-09T03:43:58.236Z,10.13
2022-11-09T03:44:58.891Z,10.24
2022-11-09T03:45:59.824Z,10.21
2022-11-09T03:47:01.024Z,10.2
2022-11-09T03:48:00.975Z,10.18
2022-11-09T03:49:02.238Z,10.27
2022-11-09T03:50:02.488Z,10.21
2022-11-09T03:51:02.686Z,10.24
2022-11-09T03:52:02.628Z,10.25
2022-11-09T03:53:03.650Z,10.23
2022-11-09T03:54:04.876Z,10.23
2022-11-09T03:55:05.087Z,10.24
2022-11-09T03:56:05.323Z,10.23
2022-11-09T03:57:05.269Z,10.27
2022-11-09T03:58:06.273Z,10.25
2022-11-09T03:59:06.179Z,10.23
2022-11-09T04:00:06.530Z,10.25
2022-11-09T04:01:07.470Z,10.31
2022-11-09T04:02:09.035Z,10.28
2022-11-09T04:03:09.440Z,10.24
2022-11-09T04:04:10.623Z,10.25
2022-11-09T04:05:11.261Z,10.28
2022-11-09T04:06:11.888Z,10.39
2022-11-09T04:07:12.465Z,10.39
2022-11-09T04:08:13.527Z,10.45
2022-11-09T04:09:14.861Z,10.46
2022-11-09T04:10:15.092Z,10.36
2022-11-09T04:11:15.726Z,10.48
2022-11-09T04:12:15.949Z,10.45
2022-11-09T04:13:17.114Z,10.61
2022-11-09T04:14:17.049Z,10.55
2022-11-09T04:15:18.041Z,10.53
2022-11-09T04:16:18.567Z,10.57
2022-11-09T04:17:18.509Z,10.58
2022-11-09T04:18:19.430Z,10.48
2022-11-09T04:19:19.649Z,10.59
2022-11-09T04:20:20.849Z,10.58
2022-11-09T04:21:24.698Z,10.57
2022-11-09T04:22:20.905Z,10.62
2022-11-09T04:23:22.677Z,10.59
2022-11-09T04:24:22.731Z,10.57
2022-11-09T04:25:23.396Z,10.57
2022-11-09T04:26:24.613Z,10.67
2022-11-09T04:27:24.802Z,10.59
2022-11-09T04:28:25.753Z,10.62
2022-11-09T04:29:26.672Z,10.62
2022-11-09T04:30:27.628Z,10.72
2022-11-09T04:31:33.573Z,10.67
2022-11-09T04:32:28.777Z,10.62
2022-11-09T04:33:29.558Z,10.61
2022-11-09T04:34:29.526Z,10.76
2022-11-09T04:35:31.038Z,10.69
2022-11-09T04:36:31.674Z,10.71
2022-11-09T04:37:31.875Z,10.58
2022-11-09T04:38:31.797Z,10.67
2022-11-09T04:39:32.421Z,10.64
2022-11-09T04:40:33.380Z,10.62
2022-11-09T04:41:34.310Z,10.68
2022-11-09T04:42:34.531Z,10.69
2022-11-09T04:43:35.962Z,10.64
2022-11-09T04:44:36.884Z,10.58
2022-11-09T04:45:36.895Z,10.69
2022-11-09T04:46:37.822Z,10.72
2022-11-09T04:47:38.745Z,10.61
2022-11-09T04:48:39.375Z,10.64
2022-11-09T04:49:40.310Z,10.72
2022-11-09T04:50:41.522Z,10.69
2022-11-09T04:51:41.747Z,10.69
2022-11-09T04:52:42.374Z,10.69
2022-11-09T04:53:43.504Z,10.75
2022-11-09T04:54:44.428Z,10.72
2022-11-09T04:55:45.066Z,10.79
2022-11-09T04:56:44.987Z,10.77
2022-11-09T04:57:45.910Z,10.71
2022-11-09T04:58:46.825Z,10.75
2022-11-09T04:59:47.762Z,10.77
2022-11-09T05:00:48.287Z,10.82
2022-11-09T05:01:48.793Z,10.71
2022-11-09T05:02:48.993Z,10.75
2022-11-09T05:03:49.655Z,10.76
2022-11-09T05:04:50.162Z,10.71
2022-11-09T05:05:54.183Z,10.71
2022-11-09T05:06:50.736Z,10.71
2022-11-09T05:07:52.062Z,10.68
2022-11-09T05:08:52.288Z,10.77
2022-11-09T05:09:52.941Z,10.72
2022-11-09T05:10:54.252Z,10.69
2022-11-09T05:11:54.461Z,10.77
2022-11-09T05:12:55.666Z,10.72
2022-11-09T05:13:56.255Z,10.69
2022-11-09T05:14:56.473Z,10.75
2022-11-09T05:15:56.411Z,10.68
2022-11-09T05:16:57.648Z,10.71
2022-11-09T05:17:57.996Z,10.68
2022-11-09T05:18:59.007Z,10.72
2022-11-09T05:20:01.983Z,10.71
2022-11-09T05:20:59.890Z,10.75
2022-11-09T05:22:00.100Z,10.77
2022-11-09T05:23:01.019Z,10.76
2022-11-09T05:24:02.196Z,10.75
2022-11-09T05:25:02.119Z,10.77
2022-11-09T05:26:03.331Z,10.77
2022-11-09T05:27:03.258Z,10.75
2022-11-09T05:28:04.187Z,10.8
2022-11-09T05:29:04.950Z,10.82
2022-11-09T05:30:05.446Z,10.76
2022-11-09T05:31:06.136Z,10.8
2022-11-09T05:32:06.352Z,10.79
2022-11-09T05:33:07.255Z,10.8
2022-11-09T05:34:07.621Z,10.86
2022-11-09T05:35:08.563Z,10.79
2022-11-09T05:36:09.482Z,10.82
2022-11-09T05:37:10.127Z,10.79
2022-11-09T05:38:10.045Z,10.82
2022-11-09T05:39:11.247Z,10.79
2022-11-09T05:40:12.160Z,10.77
2022-11-09T05:41:13.097Z,10.82
2022-11-09T05:42:13.292Z,10.79
2022-11-09T05:43:13.628Z,10.86
2022-11-09T05:44:14.487Z,10.83
2022-11-09T05:45:46.187Z,10.79
2022-11-09T05:46:15.271Z,10.86
2022-11-09T05:47:15.330Z,10.86
2022-11-09T05:48:15.951Z,10.75
2022-11-09T05:49:16.877Z,10.77
2022-11-09T05:50:17.392Z,10.76
2022-11-09T05:51:17.590Z,10.75
2022-11-09T05:52:17.505Z,10.77
2022-11-09T05:53:19.469Z,10.72
2022-11-09T05:54:18.788Z,10.75
2022-11-09T05:55:19.030Z,10.76
2022-11-09T05:56:19.673Z,10.79
2022-11-09T05:57:20.011Z,10.71
2022-11-09T05:58:21.241Z,10.72
2022-11-09T05:59:21.505Z,10.77
2022-11-09T06:00:21.709Z,10.69
2022-11-09T06:01:21.662Z,10.71
2022-11-09T06:02:23.373Z,10.75
2022-11-09T06:03:23.869Z,10.75
2022-11-09T06:04:23.901Z,10.75
2022-11-09T06:05:24.547Z,10.79
2022-11-09T06:06:25.757Z,10.71
2022-11-09T06:07:26.183Z,10.76
2022-11-09T06:08:27.390Z,10.76
2022-11-09T06:09:27.337Z,10.71
2022-11-09T06:10:28.265Z,10.79
2022-11-09T06:11:30.077Z,10.76
2022-11-09T06:12:28.985Z,10.76
2022-11-09T06:13:29.637Z,10.76
2022-11-09T06:14:30.662Z,10.8
2022-11-09T06:15:31.651Z,10.82
2022-11-09T06:16:32.041Z,10.82
2022-11-09T06:17:33.063Z,10.82
2022-11-09T06:18:34.003Z,10.83
2022-11-09T06:19:34.048Z,10.92
2022-11-09T06:20:33.981Z,10.9
2022-11-09T06:21:34.998Z,11
2022-11-09T06:22:35.620Z,10.95
2022-11-09T06:23:36.123Z,10.92
2022-11-09T06:24:36.144Z,10.95
2022-11-09T06:25:37.068Z,10.89
2022-11-09T06:26:37.311Z,10.94
2022-11-09T06:27:37.662Z,11
2022-11-09T06:28:38.878Z,11.04
2022-11-09T06:29:39.517Z,11.02
2022-11-09T06:30:39.874Z,11.04
2022-11-09T06:31:40.532Z,11.08
2022-11-09T06:32:42.069Z,11.1
2022-11-09T06:33:42.005Z,11.07
2022-11-09T06:34:43.010Z,11.08
2022-11-09T06:35:43.666Z,11.15
2022-11-09T06:36:44.374Z,11.15
2022-11-09T06:37:45.002Z,11.13
2022-11-09T06:38:45.356Z,11.19
2022-11-09T06:39:45.998Z,11.34
2022-11-09T06:40:46.903Z,11.27
2022-11-09T06:41:53.116Z,11.33
2022-11-09T06:42:48.434Z,11.3
2022-11-09T06:43:49.156Z,11.34
2022-11-09T06:44:49.780Z,11.44
2022-11-09T06:45:50.704Z,11.49
2022-11-09T06:46:50.933Z,11.56
2022-11-09T06:47:50.867Z,11.59
2022-11-09T06:48:55.400Z,11.65
2022-11-09T06:49:52.629Z,11.71
2022-11-09T06:50:52.651Z,11.77
2022-11-09T06:51:53.856Z,11.83
2022-11-09T06:52:54.087Z,11.88
2022-11-09T06:53:55.292Z,12.11
2022-11-09T06:54:56.368Z,12.07
2022-11-09T06:55:57.163Z,12.23
2022-11-09T06:56:56.695Z,12.35
2022-11-09T06:57:56.910Z,12.32
2022-11-09T06:58:57.533Z,12.39
2022-11-09T06:59:57.756Z,12.58
2022-11-09T07:00:58.509Z,12.75
2022-11-09T07:02:02.369Z,12.91
2022-11-09T07:02:58.605Z,12.87
2022-11-09T07:03:59.514Z,12.81
2022-11-09T07:05:00.151Z,12.83
2022-11-09T07:06:00.493Z,12.8
2022-11-09T07:07:01.792Z,12.8
2022-11-09T07:08:02.471Z,12.58
2022-11-09T07:09:03.408Z,12.66
2022-11-09T07:10:03.344Z,12.61
2022-11-09T07:11:04.274Z,12.39
2022-11-09T07:12:05.492Z,12.28
2022-11-09T07:13:06.142Z,12.2
2022-11-09T07:14:07.363Z,12.14
2022-11-09T07:15:08.405Z,12.28
2022-11-09T07:16:08.774Z,12.4
2022-11-09T07:17:09.170Z,12.53
2022-11-09T07:18:09.406Z,12.54
2022-11-09T07:19:10.036Z,12.58
2022-11-09T07:20:10.542Z,12.7
2022-11-09T07:21:14.725Z,12.72
2022-11-09T07:22:11.508Z,12.78
2022-11-09T07:23:12.726Z,12.87
2022-11-09T07:24:13.496Z,12.86
2022-11-09T07:25:14.246Z,12.8
2022-11-09T07:26:14.638Z,12.8
2022-11-09T07:27:16.009Z,12.88
2022-11-09T07:28:16.808Z,12.87
2022-11-09T07:29:17.734Z,12.93
2022-11-09T07:30:17.983Z,12.8
2022-11-09T07:31:17.905Z,12.86
2022-11-09T07:32:18.562Z,12.83
2022-11-09T07:33:19.248Z,12.78
2022-11-09T07:34:19.195Z,12.75
2022-11-09T07:35:19.664Z,12.78
2022-11-09T07:36:26.597Z,12.73
2022-11-09T07:37:20.834Z,12.62
2022-11-09T07:38:21.771Z,12.68
2022-11-09T07:39:22.717Z,12.75
2022-11-09T07:40:23.648Z,12.76
2022-11-09T07:41:25.026Z,12.78
2022-11-09T07:42:25.772Z,12.8
2022-11-09T07:43:26.262Z,12.75
2022-11-09T07:44:26.223Z,12.73
2022-11-09T07:45:27.314Z,12.83
2022-11-09T07:46:27.665Z,12.68
2022-11-09T07:47:28.342Z,12.78
2022-11-09T07:48:28.878Z,12.75
2022-11-09T07:49:28.818Z,12.84
2022-11-09T07:50:30.240Z,12.81
2022-11-09T07:51:30.821Z,12.88
2022-11-09T07:52:31.149Z,12.78
2022-11-09T07:53:31.674Z,12.87
2022-11-09T07:54:32.640Z,12.93
2022-11-09T07:55:33.223Z,12.9
2022-11-09T07:56:33.859Z,12.94
2022-11-09T07:57:34.805Z,13.02
2022-11-09T07:58:36.016Z,12.98
2022-11-09T07:59:35.937Z,13.08
2022-11-09T08:00:36.481Z,13.08
2022-11-09T08:01:37.452Z,13.11
2022-11-09T08:02:37.378Z,13.12
2022-11-09T08:03:37.352Z,13.21
2022-11-09T08:04:38.580Z,13.21
2022-11-09T08:05:38.671Z,13.31
2022-11-09T08:06:40.425Z,13.24
2022-11-09T08:07:40.144Z,13.12
2022-11-09T08:08:41.064Z,13.17
2022-11-09T08:09:40.993Z,13.12
2022-11-09T08:10:41.923Z,13.13
2022-11-09T08:11:42.855Z,13.06
2022-11-09T08:12:43.684Z,13.06
2022-11-09T08:13:43.894Z,13.02
2022-11-09T08:14:44.395Z,13.02
2022-11-09T08:15:45.430Z,13.16
2022-11-09T08:16:46.352Z,13.17
2022-11-09T08:17:46.588Z,13.26
2022-11-09T08:18:46.854Z,13.28
2022-11-09T08:19:47.079Z,13.21
2022-11-09T08:20:48.070Z,13.27
2022-11-09T08:21:47.856Z,13.28
2022-11-09T08:22:48.882Z,13.27
2022-11-09T08:23:49.358Z,13.4
2022-11-09T08:24:50.285Z,13.43
2022-11-09T08:25:50.434Z,13.61
2022-11-09T08:26:51.079Z,13.67
2022-11-09T08:27:51.338Z,13.78
2022-11-09T08:28:51.853Z,13.76
2022-11-09T08:29:52.112Z,13.83
2022-11-09T08:30:53.094Z,13.91
2022-11-09T08:31:53.442Z,13.87
2022-11-09T08:32:54.704Z,13.87
2022-11-09T08:33:54.957Z,13.98
2022-11-09T08:34:56.178Z,14.03
2022-11-09T08:35:59.195Z,14.04
2022-11-09T08:36:57.868Z,14.16
2022-11-09T08:37:59.098Z,14.2
2022-11-09T08:38:59.761Z,14.22
2022-11-09T08:40:00.438Z,14.26
2022-11-09T08:41:01.941Z,14.31
2022-11-09T08:42:02.777Z,14.41
2022-11-09T08:43:03.294Z,14.4
2022-11-09T08:44:03.237Z,14.43
2022-11-09T08:45:04.211Z,14.55
2022-11-09T08:46:05.266Z,14.7
2022-11-09T08:47:05.170Z,14.71
2022-11-09T08:48:06.164Z,14.78
2022-11-09T08:49:06.723Z,14.78
2022-11-09T08:50:06.652Z,14.87
2022-11-09T08:51:07.594Z,15
2022-11-09T08:52:07.869Z,14.96
2022-11-09T08:53:08.819Z,14.86
2022-11-09T08:54:09.023Z,14.82
2022-11-09T08:55:09.714Z,14.82
2022-11-09T08:56:10.313Z,14.86
2022-11-09T08:57:11.251Z,14.82
2022-11-09T08:58:11.229Z,14.82
2022-11-09T08:59:11.341Z,14.73
2022-11-09T09:00:12.575Z,14.71
2022-11-09T09:01:18.066Z,14.63
2022-11-09T09:02:13.414Z,14.7
2022-11-09T09:03:14.111Z,14.63
2022-11-09T09:04:15.490Z,14.71
2022-11-09T09:05:15.528Z,14.71
2022-11-09T09:06:15.643Z,14.77
2022-11-09T09:07:16.963Z,15
2022-11-09T09:08:17.056Z,15.26
2022-11-09T09:09:17.808Z,15.57
2022-11-09T09:10:17.906Z,15.9
2022-11-09T09:11:18.235Z,15.99
2022-11-09T09:12:18.767Z,16.21
2022-11-09T09:13:19.023Z,16.29
2022-11-09T09:14:19.669Z,16.37
2022-11-09T09:15:20.599Z,16.49
2022-11-09T09:16:21.414Z,16.47
2022-11-09T09:17:21.638Z,16.58
2022-11-09T09:18:23.661Z,16.59
2022-11-09T09:19:23.277Z,16.59
2022-11-09T09:20:23.521Z,16.68
2022-11-09T09:21:24.857Z,16.72
2022-11-09T09:22:24.792Z,16.61
2022-11-09T09:23:25.205Z,16.64
2022-11-09T09:24:25.160Z,16.66
2022-11-09T09:25:25.400Z,16.66
2022-11-09T09:26:25.991Z,16.8
2022-11-09T09:27:26.931Z,16.74
2022-11-09T09:28:27.760Z,16.86
2022-11-09T09:29:27.695Z,16.86
2022-11-09T09:30:27.648Z,17.02
2022-11-09T09:31:28.319Z,17.13
2022-11-09T09:32:28.245Z,17.32
2022-11-09T09:33:29.338Z,17.49
2022-11-09T09:34:30.623Z,17.75
2022-11-09T09:35:30.893Z,17.9
2022-11-09T09:36:30.949Z,17.9
2022-11-09T09:37:31.849Z,18
2022-11-09T09:38:32.815Z,18.13
2022-11-09T09:39:33.129Z,18.53
2022-11-09T09:40:33.645Z,18.81
2022-11-09T09:41:34.579Z,18.88
2022-11-09T09:42:34.825Z,18.88
2022-11-09T09:43:43.766Z,18.89
2022-11-09T09:44:36.484Z,18.86
2022-11-09T09:45:36.176Z,18.88
2022-11-09T09:46:36.839Z,18.96
2022-11-09T09:47:37.074Z,18.98
2022-11-09T09:48:38.312Z,18.96
2022-11-09T09:49:38.965Z,19.01
2022-11-09T09:50:39.484Z,18.96
2022-11-09T09:51:39.725Z,19.04
2022-11-09T09:52:39.987Z,18.98
2022-11-09T09:53:39.882Z,19.08
2022-11-09T09:54:41.129Z,18.96
2022-11-09T09:55:41.565Z,19.04
2022-11-09T09:56:41.615Z,18.98
2022-11-09T09:57:47.395Z,18.97
2022-11-09T09:58:42.383Z,19.11
2022-11-09T09:59:42.359Z,19.24
2022-11-09T10:00:43.299Z,19.32
2022-11-09T10:01:43.939Z,19.44
2022-11-09T10:02:44.575Z,19.47
2022-11-09T10:03:45.257Z,19.63
2022-11-09T10:04:46.466Z,19.9
2022-11-09T10:05:46.344Z,19.89
2022-11-09T10:06:47.381Z,19.96
2022-11-09T10:07:48.261Z,19.89
2022-11-09T10:08:48.476Z,19.72
2022-11-09T10:09:48.757Z,19.78
2022-11-09T10:10:49.463Z,19.72
2022-11-09T10:11:50.113Z,19.57
2022-11-09T10:12:50.735Z,19.44
2022-11-09T10:13:51.292Z,19.29
2022-11-09T10:14:51.957Z,19.07
2022-11-09T10:15:52.622Z,18.86
2022-11-09T10:16:52.946Z,18.78
2022-11-09T10:17:53.309Z,18.73
2022-11-09T10:18:54.833Z,18.6
2022-11-09T10:19:54.782Z,18.51
2022-11-09T10:20:58.933Z,18.51
2022-11-09T10:21:56.167Z,18.49
2022-11-09T10:22:55.824Z,18.43
2022-11-09T10:23:56.205Z,18.42
2022-11-09T10:26:04.108Z,18.27
2022-11-09T10:26:27.313Z,18.16
2022-11-09T10:27:27.661Z,18.21
2022-11-09T10:29:14.253Z,17.98
2022-11-09T10:29:31.676Z,17.87
2022-11-09T10:30:32.612Z,17.73
2022-11-09T10:31:32.562Z,17.8
2022-11-09T10:32:33.108Z,17.75
2022-11-09T10:33:34.071Z,17.75
2022-11-09T10:34:34.337Z,17.68
2022-11-09T10:35:34.569Z,17.76
2022-11-09T10:36:35.080Z,17.76
2022-11-09T10:37:35.837Z,17.8
2022-11-09T10:38:36.160Z,17.87
2022-11-09T10:39:36.432Z,18.05
2022-11-09T10:40:36.822Z,17.95
2022-11-09T10:41:37.061Z,18.09
2022-11-09T10:42:38.287Z,18.11
2022-11-09T10:43:38.531Z,18.18
2022-11-09T10:44:39.059Z,18.31
2022-11-09T10:45:39.569Z,18.24
2022-11-09T10:46:39.218Z,18.33
2022-11-09T10:47:40.663Z,18.52
2022-11-09T10:48:40.643Z,18.7
2022-11-09T10:49:41.006Z,18.74
2022-11-09T10:50:41.792Z,19.11
2022-11-09T10:51:42.046Z,19.19
2022-11-09T10:52:47.946Z,19.35
2022-11-09T10:53:44.487Z,19.47
2022-11-09T10:54:45.004Z,19.63
2022-11-09T10:55:45.221Z,19.72
2022-11-09T10:57:09.988Z,19.85
2022-11-09T10:57:57.737Z,19.92
2022-11-09T10:58:59.000Z,19.97
2022-11-09T10:59:59.504Z,20
2022-11-09T11:00:59.725Z,20.14
2022-11-09T11:02:03.681Z,20.27
2022-11-09T11:03:01.164Z,20.44
2022-11-09T11:04:02.127Z,20.44
2022-11-09T11:05:02.153Z,20.52
2022-11-09T11:06:02.858Z,20.37
2022-11-09T11:07:04.007Z,20.24
2022-11-09T11:08:04.622Z,20.27
2022-11-09T11:09:05.870Z,20.42
2022-11-09T11:10:05.816Z,20.59
2022-11-09T11:11:37.166Z,20.78
2022-11-09T11:12:07.409Z,20.9
2022-11-09T11:13:07.802Z,20.95
2022-11-09T11:14:08.723Z,21.05
2022-11-09T11:15:09.904Z,21.15
2022-11-09T11:16:10.132Z,21.07
2022-11-09T11:17:11.390Z,21.19
2022-11-09T11:18:12.438Z,21.17
2022-11-09T11:19:12.656Z,21.14
2022-11-09T11:20:13.681Z,21.11
2022-11-09T11:21:19.763Z,21.19
2022-11-09T11:22:15.338Z,21.03
2022-11-09T11:23:15.568Z,21.03
2022-11-09T11:24:16.450Z,21.03
2022-11-09T11:25:17.688Z,21
2022-11-09T11:26:18.082Z,21.14
2022-11-09T11:27:18.315Z,21.14
2022-11-09T11:28:19.718Z,21.22
2022-11-09T11:29:19.949Z,21.35
2022-11-09T11:30:21.401Z,21.4
2022-11-09T11:31:21.649Z,21.59
2022-11-09T11:32:22.709Z,21.63
2022-11-09T11:33:24.739Z,21.7
2022-11-09T11:35:01.729Z,21.99
2022-11-09T11:35:25.069Z,22
2022-11-09T11:36:25.639Z,22.06
2022-11-09T11:37:26.175Z,21.99
2022-11-09T11:38:27.142Z,22.07
2022-11-09T11:39:30.039Z,22.08
2022-11-09T11:40:28.322Z,22.01
2022-11-09T11:41:28.535Z,21.99
2022-11-09T11:42:28.473Z,22
2022-11-09T11:43:29.362Z,22.01
2022-11-09T11:44:30.000Z,22
2022-11-09T11:45:48.075Z,22.14
2022-11-09T11:46:30.731Z,22.08
2022-11-09T11:47:32.072Z,22.28
2022-11-09T11:48:32.888Z,22.3
2022-11-09T11:49:33.564Z,22.4
2022-11-09T11:50:34.587Z,22.55
2022-11-09T11:51:35.135Z,22.65
2022-11-09T11:52:35.361Z,22.58
2022-11-09T11:53:43.612Z,22.61
2022-11-09T11:54:35.843Z,22.46
2022-11-09T11:55:36.500Z,22.38
2022-11-09T11:56:37.053Z,22.26
2022-11-09T11:57:37.414Z,22.12
2022-11-09T11:58:38.481Z,22.14
2022-11-09T11:59:38.724Z,22.28
2022-11-09T12:00:39.956Z,22.3
2022-11-09T12:01:39.896Z,22.46
2022-11-09T12:02:41.351Z,22.38
2022-11-09T12:03:41.175Z,22.41
2022-11-09T12:04:42.321Z,22.38
2022-11-09T12:05:42.577Z,22.4
2022-11-09T12:06:44.722Z,22.47
2022-11-09T12:07:44.179Z,22.36
2022-11-09T12:08:45.002Z,22.37
2022-11-09T12:09:45.747Z,22.38
2022-11-09T12:10:46.995Z,22.49
2022-11-09T12:11:47.685Z,22.58
2022-11-09T12:12:48.629Z,22.67
2022-11-09T12:13:55.150Z,22.74
2022-11-09T12:14:50.369Z,22.61
2022-11-09T12:15:50.899Z,22.43
2022-11-09T12:16:50.837Z,22.23
2022-11-09T12:17:52.353Z,22.08
2022-11-09T12:18:53.414Z,22.12
2022-11-09T12:19:54.345Z,22.03
2022-11-09T12:20:54.938Z,22.03
2022-11-09T12:21:55.519Z,22.1
2022-11-09T12:22:55.788Z,22.21
2022-11-09T12:23:56.730Z,22.08
2022-11-09T12:24:57.391Z,22.14
2022-11-09T12:25:58.440Z,22.1
2022-11-09T12:27:33.976Z,22.03
2022-11-09T12:28:00.211Z,22.06
2022-11-09T12:29:00.915Z,22.07
2022-11-09T12:30:01.341Z,21.85
2022-11-09T12:31:02.613Z,22.03
2022-11-09T12:32:03.570Z,21.92
2022-11-09T12:33:03.857Z,21.97
2022-11-09T12:34:05.114Z,21.84
2022-11-09T12:35:05.700Z,21.89
2022-11-09T12:36:05.907Z,21.89
2022-11-09T12:37:06.418Z,21.92
2022-11-09T12:38:07.120Z,21.92
2022-11-09T12:39:07.741Z,21.88
2022-11-09T12:40:07.797Z,22
2022-11-09T12:41:07.878Z,21.96
2022-11-09T12:42:08.266Z,22.04
2022-11-09T12:43:09.513Z,21.84
2022-11-09T12:44:17.376Z,21.8
2022-11-09T12:45:10.455Z,21.69
2022-11-09T12:46:10.773Z,21.51
2022-11-09T12:47:11.447Z,21.53
2022-11-09T12:48:12.588Z,21.47
2022-11-09T12:49:13.086Z,21.45
2022-11-09T12:50:13.950Z,21.47
2022-11-09T12:51:13.942Z,21.48
2022-11-09T12:52:14.258Z,21.56
2022-11-09T12:53:15.215Z,21.48
2022-11-09T12:54:15.818Z,21.35
2022-11-09T12:58:20.889Z,21.19
2022-11-09T12:59:20.138Z,21.13
2022-11-09T13:01:21.306Z,21.04
2022-11-09T13:02:21.707Z,21.07
2022-11-09T13:03:22.305Z,20.93
2022-11-09T13:04:22.938Z,20.9
2022-11-09T13:05:23.053Z,20.86
2022-11-09T13:06:23.304Z,20.78
2022-11-09T13:07:24.155Z,20.85
2022-11-09T13:08:24.851Z,20.83